sensor_id;sensor_type;location;lat;lon;timestamp;temperature;humidity
47576;DHT22;33304;52.456;13.328;2023-01-19T00:00:04;-0.60;57.20
47576;DHT22;33304;52.456;13.328;2023-01-19T00:02:33;-0.70;56.70
47576;DHT22;33304;52.456;13.328;2023-01-19T00:05:00;-0.70;56.50
47576;DHT22;33304;52.456;13.328;2023-01-19T00:07:29;-0.80;56.30
47576;DHT22;33304;52.456;13.328;2023-01-19T00:09:56;-0.70;56.00
47576;DHT22;33304;52.456;13.328;2023-01-19T00:12:24;-0.80;57.00
47576;DHT22;33304;52.456;13.328;2023-01-19T00:14:52;-0.90;56.90
47576;DHT22;33304;52.456;13.328;2023-01-19T00:17:19;-0.80;57.00
47576;DHT22;33304;52.456;13.328;2023-01-19T00:19:46;-0.80;57.00
47576;DHT22;33304;52.456;13.328;2023-01-19T00:22:13;-0.80;56.70
47576;DHT22;33304;52.456;13.328;2023-01-19T00:24:40;-0.60;55.80
47576;DHT22;33304;52.456;13.328;2023-01-19T00:27:07;-0.70;55.30
47576;DHT22;33304;52.456;13.328;2023-01-19T00:29:36;-0.70;53.60
47576;DHT22;33304;52.456;13.328;2023-01-19T00:32:04;-0.80;53.90
47576;DHT22;33304;52.456;13.328;2023-01-19T00:34:31;-0.90;54.50
47576;DHT22;33304;52.456;13.328;2023-01-19T00:37:04;-0.80;54.70
47576;DHT22;33304;52.456;13.328;2023-01-19T00:39:31;-0.80;54.20
47576;DHT22;33304;52.456;13.328;2023-01-19T00:41:59;-0.80;54.00
47576;DHT22;33304;52.456;13.328;2023-01-19T00:44:44;-0.90;53.90
47576;DHT22;33304;52.456;13.328;2023-01-19T00:47:12;-0.80;53.90
47576;DHT22;33304;52.456;13.328;2023-01-19T00:49:39;-0.70;52.70
47576;DHT22;33304;52.456;13.328;2023-01-19T00:52:06;-0.80;52.30
47576;DHT22;33304;52.456;13.328;2023-01-19T00:54:33;-1.00;52.90
47576;DHT22;33304;52.456;13.328;2023-01-19T00:57:01;-1.00;53.70
47576;DHT22;33304;52.456;13.328;2023-01-19T00:59:28;-1.10;54.20
47576;DHT22;33304;52.456;13.328;2023-01-19T01:01:56;-1.20;55.20
47576;DHT22;33304;52.456;13.328;2023-01-19T01:04:23;-1.20;56.60
47576;DHT22;33304;52.456;13.328;2023-01-19T01:06:50;-1.20;56.70
47576;DHT22;33304;52.456;13.328;2023-01-19T01:09:18;-1.20;56.70
47576;DHT22;33304;52.456;13.328;2023-01-19T01:11:45;-1.10;56.80
47576;DHT22;33304;52.456;13.328;2023-01-19T01:14:12;-1.10;56.70
47576;DHT22;33304;52.456;13.328;2023-01-19T01:16:40;-1.10;56.80
47576;DHT22;33304;52.456;13.328;2023-01-19T01:19:08;-1.10;56.30
47576;DHT22;33304;52.456;13.328;2023-01-19T01:21:35;-1.20;56.30
47576;DHT22;33304;52.456;13.328;2023-01-19T01:24:03;-1.20;56.60
47576;DHT22;33304;52.456;13.328;2023-01-19T01:26:30;-1.20;56.70
47576;DHT22;33304;52.456;13.328;2023-01-19T01:28:57;-1.20;56.60
47576;DHT22;33304;52.456;13.328;2023-01-19T01:31:25;-1.20;56.70
47576;DHT22;33304;52.456;13.328;2023-01-19T01:33:52;-1.30;56.60
47576;DHT22;33304;52.456;13.328;2023-01-19T01:36:20;-1.20;56.60
47576;DHT22;33304;52.456;13.328;2023-01-19T01:38:48;-1.30;56.60
47576;DHT22;33304;52.456;13.328;2023-01-19T01:41:15;-1.10;55.90
47576;DHT22;33304;52.456;13.328;2023-01-19T01:43:44;-1.10;55.90
47576;DHT22;33304;52.456;13.328;2023-01-19T01:46:12;-1.20;55.80
47576;DHT22;33304;52.456;13.328;2023-01-19T01:48:45;-1.20;56.70
47576;DHT22;33304;52.456;13.328;2023-01-19T01:51:17;-1.20;56.70
47576;DHT22;33304;52.456;13.328;2023-01-19T01:53:58;-1.20;56.30
47576;DHT22;33304;52.456;13.328;2023-01-19T01:56:31;-1.10;55.60
47576;DHT22;33304;52.456;13.328;2023-01-19T01:59:03;-1.10;55.10
47576;DHT22;33304;52.456;13.328;2023-01-19T02:01:31;-1.20;54.40
47576;DHT22;33304;52.456;13.328;2023-01-19T02:04:15;-1.10;54.30
47576;DHT22;33304;52.456;13.328;2023-01-19T02:06:43;-1.10;53.90
47576;DHT22;33304;52.456;13.328;2023-01-19T02:09:33;-1.20;53.10
47576;DHT22;33304;52.456;13.328;2023-01-19T02:12:19;-1.20;53.10
47576;DHT22;33304;52.456;13.328;2023-01-19T02:15:04;-1.30;53.10
47576;DHT22;33304;52.456;13.328;2023-01-19T02:17:31;-1.50;54.20
47576;DHT22;33304;52.456;13.328;2023-01-19T02:19:59;-1.60;55.00
47576;DHT22;33304;52.456;13.328;2023-01-19T02:22:32;-1.60;56.30
47576;DHT22;33304;52.456;13.328;2023-01-19T02:25:03;-1.50;56.40
47576;DHT22;33304;52.456;13.328;2023-01-19T02:27:31;-1.50;56.40
47576;DHT22;33304;52.456;13.328;2023-01-19T02:29:58;-1.50;55.70
47576;DHT22;33304;52.456;13.328;2023-01-19T02:32:28;-1.40;55.70
47576;DHT22;33304;52.456;13.328;2023-01-19T02:34:55;-1.50;54.90
47576;DHT22;33304;52.456;13.328;2023-01-19T02:37:23;-1.60;55.80
47576;DHT22;33304;52.456;13.328;2023-01-19T02:39:53;-1.70;56.30
47576;DHT22;33304;52.456;13.328;2023-01-19T02:42:26;-1.70;56.30
47576;DHT22;33304;52.456;13.328;2023-01-19T02:44:56;-1.80;56.20
47576;DHT22;33304;52.456;13.328;2023-01-19T02:47:23;-1.70;57.00
47576;DHT22;33304;52.456;13.328;2023-01-19T02:49:54;-1.60;56.30
47576;DHT22;33304;52.456;13.328;2023-01-19T02:52:21;-1.60;56.30
47576;DHT22;33304;52.456;13.328;2023-01-19T02:55:01;-1.70;54.80
47576;DHT22;33304;52.456;13.328;2023-01-19T02:57:39;-1.90;56.10
47576;DHT22;33304;52.456;13.328;2023-01-19T03:00:19;-2.00;57.00
47576;DHT22;33304;52.456;13.328;2023-01-19T03:02:58;-2.00;60.40
47576;DHT22;33304;52.456;13.328;2023-01-19T03:05:35;-2.00;61.00
47576;DHT22;33304;52.456;13.328;2023-01-19T03:08:12;-2.00;60.70
47576;DHT22;33304;52.456;13.328;2023-01-19T03:10:46;-2.00;61.00
47576;DHT22;33304;52.456;13.328;2023-01-19T03:13:23;-2.00;60.70
47576;DHT22;33304;52.456;13.328;2023-01-19T03:15:55;-2.00;60.90
47576;DHT22;33304;52.456;13.328;2023-01-19T03:18:26;-1.90;60.70
47576;DHT22;33304;52.456;13.328;2023-01-19T03:20:57;-2.00;60.60
47576;DHT22;33304;52.456;13.328;2023-01-19T03:23:29;-2.10;60.20
47576;DHT22;33304;52.456;13.328;2023-01-19T03:25:58;-2.10;60.70
47576;DHT22;33304;52.456;13.328;2023-01-19T03:28:29;-2.20;61.20
47576;DHT22;33304;52.456;13.328;2023-01-19T03:30:59;-2.20;63.40
47576;DHT22;33304;52.456;13.328;2023-01-19T03:33:30;-2.20;64.20
47576;DHT22;33304;52.456;13.328;2023-01-19T03:36:02;-2.20;65.50
47576;DHT22;33304;52.456;13.328;2023-01-19T03:38:34;-2.20;66.40
47576;DHT22;33304;52.456;13.328;2023-01-19T03:41:03;-2.20;66.40
47576;DHT22;33304;52.456;13.328;2023-01-19T03:43:35;-2.20;67.20
47576;DHT22;33304;52.456;13.328;2023-01-19T03:46:05;-2.10;68.00
47576;DHT22;33304;52.456;13.328;2023-01-19T03:48:33;-2.10;66.50
47576;DHT22;33304;52.456;13.328;2023-01-19T03:51:02;-2.20;66.40
47576;DHT22;33304;52.456;13.328;2023-01-19T03:53:29;-2.30;66.30
47576;DHT22;33304;52.456;13.328;2023-01-19T03:55:57;-2.30;66.50
47576;DHT22;33304;52.456;13.328;2023-01-19T03:58:24;-2.30;68.10
47576;DHT22;33304;52.456;13.328;2023-01-19T04:00:52;-2.40;68.50
47576;DHT22;33304;52.456;13.328;2023-01-19T04:03:19;-2.40;71.60
47576;DHT22;33304;52.456;13.328;2023-01-19T04:05:46;-2.30;71.60
47576;DHT22;33304;52.456;13.328;2023-01-19T04:08:14;-2.40;72.00
47576;DHT22;33304;52.456;13.328;2023-01-19T04:10:41;-2.40;72.20
47576;DHT22;33304;52.456;13.328;2023-01-19T04:13:08;-2.40;72.80
47576;DHT22;33304;52.456;13.328;2023-01-19T04:15:35;-2.50;72.20
47576;DHT22;33304;52.456;13.328;2023-01-19T04:18:04;-2.50;72.80
47576;DHT22;33304;52.456;13.328;2023-01-19T04:20:31;-2.50;74.70
47576;DHT22;33304;52.456;13.328;2023-01-19T04:22:59;-2.50;75.10
47576;DHT22;33304;52.456;13.328;2023-01-19T04:25:27;-2.50;74.20
47576;DHT22;33304;52.456;13.328;2023-01-19T04:27:54;-2.60;74.20
47576;DHT22;33304;52.456;13.328;2023-01-19T04:30:23;-2.60;74.80
47576;DHT22;33304;52.456;13.328;2023-01-19T04:32:50;-2.70;75.30
47576;DHT22;33304;52.456;13.328;2023-01-19T04:35:19;-2.70;78.50
47576;DHT22;33304;52.456;13.328;2023-01-19T04:37:47;-2.70;80.70
47576;DHT22;33304;52.456;13.328;2023-01-19T04:40:14;-2.70;80.30
47576;DHT22;33304;52.456;13.328;2023-01-19T04:42:42;-2.80;80.40
47576;DHT22;33304;52.456;13.328;2023-01-19T04:45:10;-2.80;81.20
47576;DHT22;33304;52.456;13.328;2023-01-19T04:47:38;-2.80;81.20
47576;DHT22;33304;52.456;13.328;2023-01-19T04:50:07;-2.80;81.20
47576;DHT22;33304;52.456;13.328;2023-01-19T04:52:35;-2.90;81.20
47576;DHT22;33304;52.456;13.328;2023-01-19T04:55:04;-2.80;81.30
47576;DHT22;33304;52.456;13.328;2023-01-19T04:57:31;-2.70;82.70
47576;DHT22;33304;52.456;13.328;2023-01-19T04:59:58;-2.80;81.50
47576;DHT22;33304;52.456;13.328;2023-01-19T05:02:25;-2.70;80.80
47576;DHT22;33304;52.456;13.328;2023-01-19T05:04:52;-2.80;80.70
47576;DHT22;33304;52.456;13.328;2023-01-19T05:07:19;-2.70;76.80
47576;DHT22;33304;52.456;13.328;2023-01-19T05:09:48;-2.70;76.40
47576;DHT22;33304;52.456;13.328;2023-01-19T05:12:15;-2.70;77.30
47576;DHT22;33304;52.456;13.328;2023-01-19T05:14:42;-2.80;77.00
47576;DHT22;33304;52.456;13.328;2023-01-19T05:17:10;-2.80;78.10
47576;DHT22;33304;52.456;13.328;2023-01-19T05:19:37;-2.80;77.20
47576;DHT22;33304;52.456;13.328;2023-01-19T05:22:05;-2.70;77.20
47576;DHT22;33304;52.456;13.328;2023-01-19T05:24:32;-2.70;77.70
47576;DHT22;33304;52.456;13.328;2023-01-19T05:27:00;-2.70;76.50
47576;DHT22;33304;52.456;13.328;2023-01-19T05:29:27;-2.70;76.30
47576;DHT22;33304;52.456;13.328;2023-01-19T05:31:54;-2.80;76.20
47576;DHT22;33304;52.456;13.328;2023-01-19T05:34:22;-2.80;76.20
47576;DHT22;33304;52.456;13.328;2023-01-19T05:36:49;-2.80;76.20
47576;DHT22;33304;52.456;13.328;2023-01-19T05:39:16;-2.80;76.30
47576;DHT22;33304;52.456;13.328;2023-01-19T05:41:43;-2.80;76.20
47576;DHT22;33304;52.456;13.328;2023-01-19T05:44:12;-2.80;76.30
47576;DHT22;33304;52.456;13.328;2023-01-19T05:46:39;-2.80;76.20
47576;DHT22;33304;52.456;13.328;2023-01-19T05:49:07;-2.80;76.20
47576;DHT22;33304;52.456;13.328;2023-01-19T05:51:34;-2.80;76.30
47576;DHT22;33304;52.456;13.328;2023-01-19T05:54:04;-2.80;76.20
47576;DHT22;33304;52.456;13.328;2023-01-19T05:56:31;-2.80;76.20
47576;DHT22;33304;52.456;13.328;2023-01-19T05:58:59;-2.80;75.80
47576;DHT22;33304;52.456;13.328;2023-01-19T06:01:27;-2.80;76.20
47576;DHT22;33304;52.456;13.328;2023-01-19T06:03:54;-2.70;76.30
47576;DHT22;33304;52.456;13.328;2023-01-19T06:06:22;-2.60;76.40
47576;DHT22;33304;52.456;13.328;2023-01-19T06:08:49;-2.60;68.30
47576;DHT22;33304;52.456;13.328;2023-01-19T06:11:16;-2.80;67.50
47576;DHT22;33304;52.456;13.328;2023-01-19T06:13:43;-2.80;68.70
47576;DHT22;33304;52.456;13.328;2023-01-19T06:16:10;-2.80;69.50
47576;DHT22;33304;52.456;13.328;2023-01-19T06:18:38;-2.80;69.20
47576;DHT22;33304;52.456;13.328;2023-01-19T06:21:06;-2.80;68.60
47576;DHT22;33304;52.456;13.328;2023-01-19T06:23:34;-2.80;67.90
47576;DHT22;33304;52.456;13.328;2023-01-19T06:26:02;-2.80;67.10
47576;DHT22;33304;52.456;13.328;2023-01-19T06:28:29;-2.80;67.40
47576;DHT22;33304;52.456;13.328;2023-01-19T06:30:56;-2.80;67.20
47576;DHT22;33304;52.456;13.328;2023-01-19T06:33:24;-2.80;67.00
47576;DHT22;33304;52.456;13.328;2023-01-19T06:35:54;-2.80;67.10
47576;DHT22;33304;52.456;13.328;2023-01-19T06:38:22;-2.90;67.10
47576;DHT22;33304;52.456;13.328;2023-01-19T06:40:53;-2.70;67.70
47576;DHT22;33304;52.456;13.328;2023-01-19T06:43:20;-2.70;67.10
47576;DHT22;33304;52.456;13.328;2023-01-19T06:45:48;-2.80;65.90
47576;DHT22;33304;52.456;13.328;2023-01-19T06:48:15;-2.80;67.60
47576;DHT22;33304;52.456;13.328;2023-01-19T06:50:44;-2.60;63.00
47576;DHT22;33304;52.456;13.328;2023-01-19T06:53:12;-2.70;62.20
47576;DHT22;33304;52.456;13.328;2023-01-19T06:55:41;-2.80;62.20
47576;DHT22;33304;52.456;13.328;2023-01-19T06:58:09;-2.80;62.70
47576;DHT22;33304;52.456;13.328;2023-01-19T07:00:36;-2.80;62.80
47576;DHT22;33304;52.456;13.328;2023-01-19T07:03:05;-2.80;62.80
47576;DHT22;33304;52.456;13.328;2023-01-19T07:05:33;-2.80;62.50
47576;DHT22;33304;52.456;13.328;2023-01-19T07:08:01;-2.70;62.50
47576;DHT22;33304;52.456;13.328;2023-01-19T07:10:30;-2.80;61.90
47576;DHT22;33304;52.456;13.328;2023-01-19T07:12:57;-2.80;61.80
47576;DHT22;33304;52.456;13.328;2023-01-19T07:15:24;-2.80;62.50
47576;DHT22;33304;52.456;13.328;2023-01-19T07:17:51;-2.80;62.00
47576;DHT22;33304;52.456;13.328;2023-01-19T07:20:18;-2.70;62.50
47576;DHT22;33304;52.456;13.328;2023-01-19T07:22:46;-2.70;60.70
47576;DHT22;33304;52.456;13.328;2023-01-19T07:25:14;-2.70;60.90
47576;DHT22;33304;52.456;13.328;2023-01-19T07:27:46;-2.70;60.50
47576;DHT22;33304;52.456;13.328;2023-01-19T07:30:14;-2.70;59.80
47576;DHT22;33304;52.456;13.328;2023-01-19T07:32:41;-2.70;59.40
47576;DHT22;33304;52.456;13.328;2023-01-19T07:35:09;-2.80;59.80
47576;DHT22;33304;52.456;13.328;2023-01-19T07:37:36;-2.80;60.20
47576;DHT22;33304;52.456;13.328;2023-01-19T07:40:04;-2.60;59.10
47576;DHT22;33304;52.456;13.328;2023-01-19T07:42:31;-2.60;57.40
47576;DHT22;33304;52.456;13.328;2023-01-19T07:44:59;-2.60;56.10
47576;DHT22;33304;52.456;13.328;2023-01-19T07:47:27;-2.70;55.50
47576;DHT22;33304;52.456;13.328;2023-01-19T07:49:54;-2.60;55.50
47576;DHT22;33304;52.456;13.328;2023-01-19T07:52:21;-2.50;55.00
47576;DHT22;33304;52.456;13.328;2023-01-19T07:54:48;-2.50;55.60
47576;DHT22;33304;52.456;13.328;2023-01-19T07:57:16;-2.50;54.20
47576;DHT22;33304;52.456;13.328;2023-01-19T07:59:44;-2.60;54.50
47576;DHT22;33304;52.456;13.328;2023-01-19T08:02:12;-2.60;54.90
47576;DHT22;33304;52.456;13.328;2023-01-19T08:04:40;-2.50;54.60
47576;DHT22;33304;52.456;13.328;2023-01-19T08:07:08;-2.60;54.70
47576;DHT22;33304;52.456;13.328;2023-01-19T08:09:35;-2.60;54.50
47576;DHT22;33304;52.456;13.328;2023-01-19T08:12:03;-2.60;55.50
47576;DHT22;33304;52.456;13.328;2023-01-19T08:14:30;-2.20;53.30
47576;DHT22;33304;52.456;13.328;2023-01-19T08:16:58;-2.10;51.70
47576;DHT22;33304;52.456;13.328;2023-01-19T08:19:26;-2.00;49.50
47576;DHT22;33304;52.456;13.328;2023-01-19T08:21:54;-2.10;48.10
47576;DHT22;33304;52.456;13.328;2023-01-19T08:24:22;-2.10;48.10
47576;DHT22;33304;52.456;13.328;2023-01-19T08:26:57;-2.00;48.70
47576;DHT22;33304;52.456;13.328;2023-01-19T08:29:24;-2.00;48.40
47576;DHT22;33304;52.456;13.328;2023-01-19T08:31:51;-1.90;48.10
47576;DHT22;33304;52.456;13.328;2023-01-19T08:34:20;-1.90;46.70
47576;DHT22;33304;52.456;13.328;2023-01-19T08:36:48;-1.90;46.10
47576;DHT22;33304;52.456;13.328;2023-01-19T08:39:15;-2.00;46.70
47576;DHT22;33304;52.456;13.328;2023-01-19T08:41:43;-1.90;45.50
47576;DHT22;33304;52.456;13.328;2023-01-19T08:44:10;-2.00;45.50
47576;DHT22;33304;52.456;13.328;2023-01-19T08:46:37;-2.10;46.50
47576;DHT22;33304;52.456;13.328;2023-01-19T08:49:04;-2.00;47.00
47576;DHT22;33304;52.456;13.328;2023-01-19T08:51:32;-1.90;46.20
47576;DHT22;33304;52.456;13.328;2023-01-19T08:54:00;-1.90;46.20
47576;DHT22;33304;52.456;13.328;2023-01-19T08:56:27;-1.60;45.50
47576;DHT22;33304;52.456;13.328;2023-01-19T08:58:55;-1.60;44.80
47576;DHT22;33304;52.456;13.328;2023-01-19T09:01:22;-1.50;45.60
47576;DHT22;33304;52.456;13.328;2023-01-19T09:03:50;-1.50;43.60
47576;DHT22;33304;52.456;13.328;2023-01-19T09:06:18;-1.50;44.50
47576;DHT22;33304;52.456;13.328;2023-01-19T09:08:46;-1.40;44.00
47576;DHT22;33304;52.456;13.328;2023-01-19T09:11:15;-1.20;42.80
47576;DHT22;33304;52.456;13.328;2023-01-19T09:13:43;-1.10;42.10
47576;DHT22;33304;52.456;13.328;2023-01-19T09:16:10;-0.90;42.00
47576;DHT22;33304;52.456;13.328;2023-01-19T09:18:40;-0.90;40.60
47576;DHT22;33304;52.456;13.328;2023-01-19T09:21:08;-0.80;40.70
47576;DHT22;33304;52.456;13.328;2023-01-19T09:23:35;-0.80;40.20
47576;DHT22;33304;52.456;13.328;2023-01-19T09:26:04;-0.90;40.60
47576;DHT22;33304;52.456;13.328;2023-01-19T09:28:32;-0.70;40.70
47576;DHT22;33304;52.456;13.328;2023-01-19T09:31:03;-0.70;40.40
47576;DHT22;33304;52.456;13.328;2023-01-19T09:33:30;-0.60;39.80
47576;DHT22;33304;52.456;13.328;2023-01-19T09:35:57;-0.60;39.20
47576;DHT22;33304;52.456;13.328;2023-01-19T09:38:25;-0.50;38.60
47576;DHT22;33304;52.456;13.328;2023-01-19T09:40:56;-0.40;38.70
47576;DHT22;33304;52.456;13.328;2023-01-19T09:43:36;-0.20;38.40
47576;DHT22;33304;52.456;13.328;2023-01-19T09:46:11;-0.10;36.10
47576;DHT22;33304;52.456;13.328;2023-01-19T09:48:43;-0.10;36.70
47576;DHT22;33304;52.456;13.328;2023-01-19T09:51:14;0.00;36.90
47576;DHT22;33304;52.456;13.328;2023-01-19T09:54:05;-0.10;36.50
47576;DHT22;33304;52.456;13.328;2023-01-19T09:56:34;0.00;36.70
47576;DHT22;33304;52.456;13.328;2023-01-19T09:59:16;-0.10;36.90
47576;DHT22;33304;52.456;13.328;2023-01-19T10:01:51;0.10;36.40
47576;DHT22;33304;52.456;13.328;2023-01-19T10:04:27;0.30;36.00
47576;DHT22;33304;52.456;13.328;2023-01-19T10:07:02;0.40;36.00
47576;DHT22;33304;52.456;13.328;2023-01-19T10:09:36;0.50;34.90
47576;DHT22;33304;52.456;13.328;2023-01-19T10:12:13;0.50;34.60
47576;DHT22;33304;52.456;13.328;2023-01-19T10:14:55;0.60;34.90
47576;DHT22;33304;52.456;13.328;2023-01-19T10:17:37;0.70;34.50
47576;DHT22;33304;52.456;13.328;2023-01-19T10:20:13;0.70;34.30
47576;DHT22;33304;52.456;13.328;2023-01-19T10:22:46;0.50;34.40
47576;DHT22;33304;52.456;13.328;2023-01-19T10:25:17;0.50;34.90
47576;DHT22;33304;52.456;13.328;2023-01-19T10:27:45;0.60;34.80
47576;DHT22;33304;52.456;13.328;2023-01-19T10:30:19;0.70;34.30
47576;DHT22;33304;52.456;13.328;2023-01-19T10:32:48;0.90;34.20
47576;DHT22;33304;52.456;13.328;2023-01-19T10:35:17;1.00;33.40
47576;DHT22;33304;52.456;13.328;2023-01-19T10:37:49;0.70;33.30
47576;DHT22;33304;52.456;13.328;2023-01-19T10:40:26;0.80;34.00
47576;DHT22;33304;52.456;13.328;2023-01-19T10:42:55;0.80;33.20
47576;DHT22;33304;52.456;13.328;2023-01-19T10:45:25;1.00;32.30
47576;DHT22;33304;52.456;13.328;2023-01-19T10:47:57;1.10;32.70
47576;DHT22;33304;52.456;13.328;2023-01-19T10:50:27;1.00;32.40
47576;DHT22;33304;52.456;13.328;2023-01-19T10:52:58;1.20;32.70
47576;DHT22;33304;52.456;13.328;2023-01-19T10:55:28;1.20;32.70
47576;DHT22;33304;52.456;13.328;2023-01-19T10:57:56;1.40;31.90
47576;DHT22;33304;52.456;13.328;2023-01-19T11:00:36;1.50;31.70
47576;DHT22;33304;52.456;13.328;2023-01-19T11:03:04;1.70;30.90
47576;DHT22;33304;52.456;13.328;2023-01-19T11:05:32;1.60;30.00
47576;DHT22;33304;52.456;13.328;2023-01-19T11:07:59;1.60;30.80
47576;DHT22;33304;52.456;13.328;2023-01-19T11:10:28;1.60;30.80
47576;DHT22;33304;52.456;13.328;2023-01-19T11:12:58;1.60;31.00
47576;DHT22;33304;52.456;13.328;2023-01-19T11:15:30;1.80;31.20
47576;DHT22;33304;52.456;13.328;2023-01-19T11:18:00;1.90;30.40
47576;DHT22;33304;52.456;13.328;2023-01-19T11:20:38;2.10;29.90
47576;DHT22;33304;52.456;13.328;2023-01-19T11:23:19;2.20;29.70
47576;DHT22;33304;52.456;13.328;2023-01-19T11:25:49;2.30;29.40
47576;DHT22;33304;52.456;13.328;2023-01-19T11:28:19;2.10;29.20
47576;DHT22;33304;52.456;13.328;2023-01-19T11:30:55;2.20;29.90
47576;DHT22;33304;52.456;13.328;2023-01-19T11:33:31;2.10;29.40
47576;DHT22;33304;52.456;13.328;2023-01-19T11:36:04;2.20;29.60
47576;DHT22;33304;52.456;13.328;2023-01-19T11:38:39;2.40;29.30
47576;DHT22;33304;52.456;13.328;2023-01-19T11:41:15;2.50;29.50
47576;DHT22;33304;52.456;13.328;2023-01-19T11:43:43;2.70;29.20
47576;DHT22;33304;52.456;13.328;2023-01-19T11:46:11;2.60;28.20
47576;DHT22;33304;52.456;13.328;2023-01-19T11:48:44;2.70;27.80
47576;DHT22;33304;52.456;13.328;2023-01-19T11:51:14;2.70;28.00
47576;DHT22;33304;52.456;13.328;2023-01-19T11:53:45;2.80;28.30
47576;DHT22;33304;52.456;13.328;2023-01-19T11:56:14;2.80;27.70
47576;DHT22;33304;52.456;13.328;2023-01-19T11:58:43;2.80;27.40
47576;DHT22;33304;52.456;13.328;2023-01-19T12:01:17;2.70;27.30
47576;DHT22;33304;52.456;13.328;2023-01-19T12:03:52;2.90;27.50
47576;DHT22;33304;52.456;13.328;2023-01-19T12:06:24;3.10;27.50
47576;DHT22;33304;52.456;13.328;2023-01-19T12:08:54;3.20;27.60
47576;DHT22;33304;52.456;13.328;2023-01-19T12:11:26;3.40;27.00
47576;DHT22;33304;52.456;13.328;2023-01-19T12:13:56;3.40;26.50
47576;DHT22;33304;52.456;13.328;2023-01-19T12:16:26;3.40;25.50
47576;DHT22;33304;52.456;13.328;2023-01-19T12:18:59;3.30;26.70
47576;DHT22;33304;52.456;13.328;2023-01-19T12:21:27;3.30;26.70
47576;DHT22;33304;52.456;13.328;2023-01-19T12:24:02;3.20;26.40
47576;DHT22;33304;52.456;13.328;2023-01-19T12:26:34;3.40;26.30
47576;DHT22;33304;52.456;13.328;2023-01-19T12:29:05;3.50;25.80
47576;DHT22;33304;52.456;13.328;2023-01-19T12:31:33;3.40;25.50
47576;DHT22;33304;52.456;13.328;2023-01-19T12:34:27;3.40;26.00
47576;DHT22;33304;52.456;13.328;2023-01-19T12:37:01;3.70;25.50
47576;DHT22;33304;52.456;13.328;2023-01-19T12:39:30;3.60;25.10
47576;DHT22;33304;52.456;13.328;2023-01-19T12:42:10;3.70;25.40
47576;DHT22;33304;52.456;13.328;2023-01-19T12:44:39;3.80;24.80
47576;DHT22;33304;52.456;13.328;2023-01-19T12:47:18;3.80;24.70
47576;DHT22;33304;52.456;13.328;2023-01-19T12:49:49;3.80;24.60
47576;DHT22;33304;52.456;13.328;2023-01-19T12:52:24;4.10;24.40
47576;DHT22;33304;52.456;13.328;2023-01-19T12:54:57;4.00;23.60
47576;DHT22;33304;52.456;13.328;2023-01-19T12:57:30;3.90;24.00
47576;DHT22;33304;52.456;13.328;2023-01-19T12:59:59;3.90;23.50
47576;DHT22;33304;52.456;13.328;2023-01-19T13:02:40;4.00;24.50
47576;DHT22;33304;52.456;13.328;2023-01-19T13:05:16;4.10;23.60
47576;DHT22;33304;52.456;13.328;2023-01-19T13:08:15;4.00;23.60
47576;DHT22;33304;52.456;13.328;2023-01-19T13:17:05;4.30;23.20
47576;DHT22;33304;52.456;13.328;2023-01-19T13:19:44;4.10;23.00
47576;DHT22;33304;52.456;13.328;2023-01-19T13:22:51;4.10;25.40
47576;DHT22;33304;52.456;13.328;2023-01-19T13:25:28;4.00;25.90
47576;DHT22;33304;52.456;13.328;2023-01-19T13:27:56;3.70;27.20
47576;DHT22;33304;52.456;13.328;2023-01-19T13:30:26;3.90;27.10
47576;DHT22;33304;52.456;13.328;2023-01-19T13:32:55;4.10;26.70
47576;DHT22;33304;52.456;13.328;2023-01-19T13:35:25;4.00;26.60
47576;DHT22;33304;52.456;13.328;2023-01-19T13:37:53;3.60;27.90
47576;DHT22;33304;52.456;13.328;2023-01-19T13:40:22;3.90;27.30
47576;DHT22;33304;52.456;13.328;2023-01-19T13:42:51;4.20;25.90
47576;DHT22;33304;52.456;13.328;2023-01-19T13:45:26;4.20;25.60
47576;DHT22;33304;52.456;13.328;2023-01-19T13:47:56;3.90;26.70
47576;DHT22;33304;52.456;13.328;2023-01-19T13:50:26;3.40;27.70
47576;DHT22;33304;52.456;13.328;2023-01-19T13:52:55;3.30;27.70
47576;DHT22;33304;52.456;13.328;2023-01-19T13:55:25;3.40;27.70
47576;DHT22;33304;52.456;13.328;2023-01-19T13:57:52;3.50;27.80
47576;DHT22;33304;52.456;13.328;2023-01-19T14:00:22;3.30;28.30
47576;DHT22;33304;52.456;13.328;2023-01-19T14:02:52;3.20;28.30
47576;DHT22;33304;52.456;13.328;2023-01-19T14:05:21;3.20;28.30
47576;DHT22;33304;52.456;13.328;2023-01-19T14:08:00;3.20;28.60
47576;DHT22;33304;52.456;13.328;2023-01-19T14:10:27;3.20;28.80
47576;DHT22;33304;52.456;13.328;2023-01-19T14:13:00;3.30;28.30
47576;DHT22;33304;52.456;13.328;2023-01-19T14:15:29;3.20;28.10
47576;DHT22;33304;52.456;13.328;2023-01-19T14:18:20;2.90;29.10
47576;DHT22;33304;52.456;13.328;2023-01-19T14:20:52;2.80;29.60
47576;DHT22;33304;52.456;13.328;2023-01-19T14:23:43;2.70;29.70
47576;DHT22;33304;52.456;13.328;2023-01-19T14:26:40;2.50;30.10
47576;DHT22;33304;52.456;13.328;2023-01-19T14:29:20;2.40;30.70
47576;DHT22;33304;52.456;13.328;2023-01-19T14:31:50;2.30;30.60
47576;DHT22;33304;52.456;13.328;2023-01-19T14:34:31;2.20;31.60
47576;DHT22;33304;52.456;13.328;2023-01-19T14:36:59;2.10;31.70
47576;DHT22;33304;52.456;13.328;2023-01-19T14:39:29;2.00;32.80
47576;DHT22;33304;52.456;13.328;2023-01-19T14:41:59;2.10;32.80
47576;DHT22;33304;52.456;13.328;2023-01-19T14:44:29;1.90;33.30
47576;DHT22;33304;52.456;13.328;2023-01-19T14:46:57;1.90;34.10
47576;DHT22;33304;52.456;13.328;2023-01-19T14:49:45;1.80;34.40
47576;DHT22;33304;52.456;13.328;2023-01-19T14:52:19;1.80;35.00
47576;DHT22;33304;52.456;13.328;2023-01-19T14:54:48;1.80;34.80
47576;DHT22;33304;52.456;13.328;2023-01-19T14:57:16;1.70;35.60
47576;DHT22;33304;52.456;13.328;2023-01-19T14:59:43;1.60;35.80
47576;DHT22;33304;52.456;13.328;2023-01-19T15:02:14;1.50;36.20
47576;DHT22;33304;52.456;13.328;2023-01-19T15:04:43;1.60;37.00
47576;DHT22;33304;52.456;13.328;2023-01-19T15:07:15;1.50;36.30
47576;DHT22;33304;52.456;13.328;2023-01-19T15:09:44;1.50;36.90
47576;DHT22;33304;52.456;13.328;2023-01-19T15:12:15;1.40;36.90
47576;DHT22;33304;52.456;13.328;2023-01-19T15:14:42;1.40;36.90
47576;DHT22;33304;52.456;13.328;2023-01-19T15:17:14;1.50;37.00
47576;DHT22;33304;52.456;13.328;2023-01-19T15:19:42;1.70;37.00
47576;DHT22;33304;52.456;13.328;2023-01-19T15:22:10;1.60;37.00
47576;DHT22;33304;52.456;13.328;2023-01-19T15:24:38;1.60;37.10
47576;DHT22;33304;52.456;13.328;2023-01-19T15:27:08;1.50;36.90
47576;DHT22;33304;52.456;13.328;2023-01-19T15:29:37;1.50;36.90
47576;DHT22;33304;52.456;13.328;2023-01-19T15:32:08;1.50;36.90
47576;DHT22;33304;52.456;13.328;2023-01-19T15:34:37;1.40;36.90
47576;DHT22;33304;52.456;13.328;2023-01-19T15:37:04;1.50;36.90
47576;DHT22;33304;52.456;13.328;2023-01-19T15:39:31;1.40;36.90
47576;DHT22;33304;52.456;13.328;2023-01-19T15:41:58;1.40;36.90
47576;DHT22;33304;52.456;13.328;2023-01-19T15:44:25;1.50;36.90
47576;DHT22;33304;52.456;13.328;2023-01-19T15:46:54;1.40;36.90